sensor_id;sensor_type;location;lat;lon;timestamp;P1;durP1;ratioP1;P2;durP2;ratioP2
16282;SDS011;8249;48.708;9.030;2023-06-14T00:00:20;48.77;;;46.57;;
16282;SDS011;8249;48.708;9.030;2023-06-14T00:02:47;44.27;;;42.40;;
16282;SDS011;8249;48.708;9.030;2023-06-14T00:05:14;41.37;;;39.57;;
16282;SDS011;8249;48.708;9.030;2023-06-14T00:07:43;38.57;;;36.93;;
16282;SDS011;8249;48.708;9.030;2023-06-14T00:10:13;45.90;;;44.00;;
16282;SDS011;8249;48.708;9.030;2023-06-14T00:12:41;46.47;;;44.53;;
16282;SDS011;8249;48.708;9.030;2023-06-14T00:15:08;35.13;;;33.70;;
16282;SDS011;8249;48.708;9.030;2023-06-14T00:17:35;29.97;;;28.77;;
16282;SDS011;8249;48.708;9.030;2023-06-14T00:20:04;35.10;;;33.60;;
16282;SDS011;8249;48.708;9.030;2023-06-14T00:22:33;23.53;;;22.63;;
16282;SDS011;8249;48.708;9.030;2023-06-14T00:25:03;42.17;;;40.37;;
16282;SDS011;8249;48.708;9.030;2023-06-14T00:27:31;56.40;;;54.03;;
16282;SDS011;8249;48.708;9.030;2023-06-14T00:29:58;40.83;;;39.10;;
16282;SDS011;8249;48.708;9.030;2023-06-14T00:32:25;56.77;;;54.37;;
16282;SDS011;8249;48.708;9.030;2023-06-14T00:34:55;43.40;;;41.53;;
16282;SDS011;8249;48.708;9.030;2023-06-14T00:37:21;25.93;;;24.90;;
16282;SDS011;8249;48.708;9.030;2023-06-14T00:39:48;36.10;;;34.60;;
16282;SDS011;8249;48.708;9.030;2023-06-14T00:42:25;93.43;;;89.43;;
16282;SDS011;8249;48.708;9.030;2023-06-14T00:44:53;30.30;;;29.07;;
16282;SDS011;8249;48.708;9.030;2023-06-14T00:47:20;26.97;;;25.87;;
16282;SDS011;8249;48.708;9.030;2023-06-14T00:49:48;25.23;;;24.23;;
16282;SDS011;8249;48.708;9.030;2023-06-14T00:52:17;28.37;;;27.17;;
16282;SDS011;8249;48.708;9.030;2023-06-14T00:54:45;27.37;;;26.27;;
16282;SDS011;8249;48.708;9.030;2023-06-14T00:57:12;30.50;;;29.23;;
16282;SDS011;8249;48.708;9.030;2023-06-14T00:59:42;32.87;;;31.40;;
16282;SDS011;8249;48.708;9.030;2023-06-14T01:02:11;52.27;;;50.10;;
16282;SDS011;8249;48.708;9.030;2023-06-14T01:04:40;44.73;;;42.87;;
16282;SDS011;8249;48.708;9.030;2023-06-14T01:07:11;44.00;;;42.13;;
16282;SDS011;8249;48.708;9.030;2023-06-14T01:09:46;31.17;;;29.90;;
16282;SDS011;8249;48.708;9.030;2023-06-14T01:12:21;23.97;;;23.03;;
16282;SDS011;8249;48.708;9.030;2023-06-14T01:14:56;30.23;;;28.93;;
16282;SDS011;8249;48.708;9.030;2023-06-14T01:17:25;29.90;;;28.70;;
16282;SDS011;8249;48.708;9.030;2023-06-14T01:19:57;45.93;;;44.03;;
16282;SDS011;8249;48.708;9.030;2023-06-14T01:22:25;28.67;;;27.47;;
16282;SDS011;8249;48.708;9.030;2023-06-14T01:24:55;28.83;;;27.70;;
16282;SDS011;8249;48.708;9.030;2023-06-14T01:27:23;40.70;;;39.00;;
16282;SDS011;8249;48.708;9.030;2023-06-14T01:29:53;64.47;;;61.73;;
16282;SDS011;8249;48.708;9.030;2023-06-14T01:32:22;98.13;;;93.77;;
16282;SDS011;8249;48.708;9.030;2023-06-14T01:34:50;41.03;;;39.27;;
16282;SDS011;8249;48.708;9.030;2023-06-14T01:37:18;32.37;;;31.03;;
16282;SDS011;8249;48.708;9.030;2023-06-14T01:39:46;37.50;;;35.77;;
16282;SDS011;8249;48.708;9.030;2023-06-14T01:42:19;39.40;;;37.77;;
16282;SDS011;8249;48.708;9.030;2023-06-14T01:44:47;52.23;;;50.07;;
16282;SDS011;8249;48.708;9.030;2023-06-14T01:47:14;52.63;;;50.40;;
16282;SDS011;8249;48.708;9.030;2023-06-14T01:49:41;40.07;;;38.33;;
16282;SDS011;8249;48.708;9.030;2023-06-14T01:52:09;60.53;;;57.93;;
16282;SDS011;8249;48.708;9.030;2023-06-14T01:54:35;49.67;;;47.60;;
16282;SDS011;8249;48.708;9.030;2023-06-14T01:57:07;33.63;;;32.23;;
16282;SDS011;8249;48.708;9.030;2023-06-14T01:59:38;123.03;;;117.50;;
16282;SDS011;8249;48.708;9.030;2023-06-14T02:02:04;112.77;;;107.70;;
16282;SDS011;8249;48.708;9.030;2023-06-14T02:04:31;179.03;;;171.20;;
16282;SDS011;8249;48.708;9.030;2023-06-14T02:06:58;139.50;;;133.33;;
16282;SDS011;8249;48.708;9.030;2023-06-14T02:09:25;176.80;;;169.13;;
16282;SDS011;8249;48.708;9.030;2023-06-14T02:11:53;195.23;;;186.77;;
16282;SDS011;8249;48.708;9.030;2023-06-14T02:14:20;219.57;;;210.23;;
16282;SDS011;8249;48.708;9.030;2023-06-14T02:16:49;187.80;;;179.67;;
16282;SDS011;8249;48.708;9.030;2023-06-14T02:19:18;193.07;;;184.60;;
16282;SDS011;8249;48.708;9.030;2023-06-14T02:21:46;186.97;;;178.73;;
16282;SDS011;8249;48.708;9.030;2023-06-14T02:24:13;197.77;;;188.87;;
16282;SDS011;8249;48.708;9.030;2023-06-14T02:26:41;179.37;;;171.70;;
16282;SDS011;8249;48.708;9.030;2023-06-14T02:29:08;162.53;;;155.73;;
16282;SDS011;8249;48.708;9.030;2023-06-14T02:31:37;161.27;;;154.57;;
16282;SDS011;8249;48.708;9.030;2023-06-14T02:34:06;153.97;;;147.40;;
16282;SDS011;8249;48.708;9.030;2023-06-14T02:36:34;170.03;;;162.63;;
16282;SDS011;8249;48.708;9.030;2023-06-14T02:39:06;156.47;;;149.80;;
16282;SDS011;8249;48.708;9.030;2023-06-14T02:41:34;158.50;;;151.80;;
16282;SDS011;8249;48.708;9.030;2023-06-14T02:44:01;155.50;;;149.00;;
16282;SDS011;8249;48.708;9.030;2023-06-14T02:46:28;147.90;;;141.70;;
16282;SDS011;8249;48.708;9.030;2023-06-14T02:48:55;146.13;;;139.90;;
16282;SDS011;8249;48.708;9.030;2023-06-14T02:51:23;148.13;;;141.73;;
16282;SDS011;8249;48.708;9.030;2023-06-14T02:53:51;163.50;;;156.43;;
16282;SDS011;8249;48.708;9.030;2023-06-14T02:56:17;167.37;;;160.17;;
16282;SDS011;8249;48.708;9.030;2023-06-14T02:58:45;176.90;;;169.33;;
16282;SDS011;8249;48.708;9.030;2023-06-14T03:01:14;143.33;;;137.23;;
16282;SDS011;8249;48.708;9.030;2023-06-14T03:03:42;147.50;;;141.13;;
16282;SDS011;8249;48.708;9.030;2023-06-14T03:06:09;136.67;;;130.90;;
16282;SDS011;8249;48.708;9.030;2023-06-14T03:08:40;142.10;;;136.10;;
16282;SDS011;8249;48.708;9.030;2023-06-14T03:11:12;138.43;;;132.50;;
16282;SDS011;8249;48.708;9.030;2023-06-14T03:13:39;127.53;;;122.03;;
16282;SDS011;8249;48.708;9.030;2023-06-14T03:16:07;132.00;;;126.30;;
16282;SDS011;8249;48.708;9.030;2023-06-14T03:18:36;135.90;;;130.13;;
16282;SDS011;8249;48.708;9.030;2023-06-14T03:21:04;127.70;;;122.30;;
16282;SDS011;8249;48.708;9.030;2023-06-14T03:23:32;127.57;;;122.23;;
16282;SDS011;8249;48.708;9.030;2023-06-14T03:26:02;132.10;;;126.30;;
16282;SDS011;8249;48.708;9.030;2023-06-14T03:28:30;136.47;;;130.73;;
16282;SDS011;8249;48.708;9.030;2023-06-14T03:30:58;139.23;;;133.37;;
16282;SDS011;8249;48.708;9.030;2023-06-14T03:33:26;147.30;;;141.17;;
16282;SDS011;8249;48.708;9.030;2023-06-14T03:35:54;165.80;;;159.00;;
16282;SDS011;8249;48.708;9.030;2023-06-14T03:38:21;127.13;;;121.80;;
16282;SDS011;8249;48.708;9.030;2023-06-14T03:40:49;129.40;;;123.37;;
16282;SDS011;8249;48.708;9.030;2023-06-14T03:43:17;116.90;;;112.00;;
16282;SDS011;8249;48.708;9.030;2023-06-14T03:45:44;116.70;;;111.80;;
16282;SDS011;8249;48.708;9.030;2023-06-14T03:48:11;117.07;;;112.07;;
16282;SDS011;8249;48.708;9.030;2023-06-14T03:50:38;117.97;;;112.93;;
16282;SDS011;8249;48.708;9.030;2023-06-14T03:53:05;112.03;;;107.33;;
16282;SDS011;8249;48.708;9.030;2023-06-14T03:55:32;111.33;;;106.53;;
16282;SDS011;8249;48.708;9.030;2023-06-14T03:58:00;117.67;;;112.67;;
16282;SDS011;8249;48.708;9.030;2023-06-14T04:00:28;122.13;;;116.90;;
16282;SDS011;8249;48.708;9.030;2023-06-14T04:02:55;121.67;;;116.40;;
16282;SDS011;8249;48.708;9.030;2023-06-14T04:05:22;124.77;;;119.37;;
16282;SDS011;8249;48.708;9.030;2023-06-14T04:07:52;140.07;;;134.10;;
16282;SDS011;8249;48.708;9.030;2023-06-14T04:10:20;146.33;;;139.87;;
16282;SDS011;8249;48.708;9.030;2023-06-14T04:12:48;124.13;;;118.70;;
16282;SDS011;8249;48.708;9.030;2023-06-14T04:15:16;106.77;;;101.93;;
16282;SDS011;8249;48.708;9.030;2023-06-14T04:17:45;108.03;;;103.47;;
16282;SDS011;8249;48.708;9.030;2023-06-14T04:20:12;113.43;;;108.57;;
16282;SDS011;8249;48.708;9.030;2023-06-14T04:22:40;118.83;;;113.47;;
16282;SDS011;8249;48.708;9.030;2023-06-14T04:25:08;118.97;;;113.90;;
16282;SDS011;8249;48.708;9.030;2023-06-14T04:27:35;120.83;;;115.63;;
16282;SDS011;8249;48.708;9.030;2023-06-14T04:30:04;127.07;;;121.57;;
16282;SDS011;8249;48.708;9.030;2023-06-14T04:32:36;123.57;;;118.37;;
16282;SDS011;8249;48.708;9.030;2023-06-14T04:35:07;125.17;;;119.70;;
16282;SDS011;8249;48.708;9.030;2023-06-14T04:37:37;149.73;;;143.30;;
16282;SDS011;8249;48.708;9.030;2023-06-14T04:40:09;161.20;;;154.37;;
16282;SDS011;8249;48.708;9.030;2023-06-14T04:42:37;195.83;;;187.47;;
16282;SDS011;8249;48.708;9.030;2023-06-14T04:45:07;220.10;;;210.47;;
16282;SDS011;8249;48.708;9.030;2023-06-14T04:47:36;117.47;;;112.23;;
16282;SDS011;8249;48.708;9.030;2023-06-14T04:50:07;164.30;;;156.83;;
16282;SDS011;8249;48.708;9.030;2023-06-14T04:52:35;38.50;;;36.80;;
16282;SDS011;8249;48.708;9.030;2023-06-14T04:55:04;107.43;;;102.67;;
16282;SDS011;8249;48.708;9.030;2023-06-14T04:57:32;27.20;;;26.07;;
16282;SDS011;8249;48.708;9.030;2023-06-14T05:00:00;68.03;;;65.03;;
16282;SDS011;8249;48.708;9.030;2023-06-14T05:02:29;193.27;;;184.50;;
16282;SDS011;8249;48.708;9.030;2023-06-14T05:04:58;81.97;;;78.33;;
16282;SDS011;8249;48.708;9.030;2023-06-14T05:07:28;24.90;;;23.90;;
16282;SDS011;8249;48.708;9.030;2023-06-14T05:09:56;59.60;;;57.10;;
16282;SDS011;8249;48.708;9.030;2023-06-14T05:12:23;35.20;;;33.77;;
16282;SDS011;8249;48.708;9.030;2023-06-14T05:14:50;45.47;;;43.53;;
16282;SDS011;8249;48.708;9.030;2023-06-14T05:17:19;37.93;;;36.30;;
16282;SDS011;8249;48.708;9.030;2023-06-14T05:19:46;47.93;;;45.80;;
16282;SDS011;8249;48.708;9.030;2023-06-14T05:22:13;65.47;;;62.47;;
16282;SDS011;8249;48.708;9.030;2023-06-14T05:24:41;64.10;;;61.30;;
16282;SDS011;8249;48.708;9.030;2023-06-14T05:27:08;79.23;;;75.80;;
16282;SDS011;8249;48.708;9.030;2023-06-14T05:29:36;104.57;;;100.00;;
16282;SDS011;8249;48.708;9.030;2023-06-14T05:32:03;46.10;;;43.87;;
16282;SDS011;8249;48.708;9.030;2023-06-14T05:34:30;53.60;;;51.30;;
16282;SDS011;8249;48.708;9.030;2023-06-14T05:36:57;64.40;;;61.47;;
16282;SDS011;8249;48.708;9.030;2023-06-14T05:39:24;47.90;;;45.80;;
16282;SDS011;8249;48.708;9.030;2023-06-14T05:41:52;35.27;;;33.77;;
16282;SDS011;8249;48.708;9.030;2023-06-14T05:44:19;44.93;;;43.03;;
16282;SDS011;8249;48.708;9.030;2023-06-14T05:46:46;60.43;;;57.63;;
16282;SDS011;8249;48.708;9.030;2023-06-14T05:49:13;45.30;;;43.20;;
16282;SDS011;8249;48.708;9.030;2023-06-14T05:51:40;73.20;;;70.00;;
16282;SDS011;8249;48.708;9.030;2023-06-14T05:54:07;51.00;;;48.57;;
16282;SDS011;8249;48.708;9.030;2023-06-14T05:56:33;64.20;;;61.40;;
16282;SDS011;8249;48.708;9.030;2023-06-14T05:59:02;49.10;;;47.00;;
16282;SDS011;8249;48.708;9.030;2023-06-14T06:01:29;77.40;;;74.03;;
16282;SDS011;8249;48.708;9.030;2023-06-14T06:03:58;57.47;;;54.93;;
16282;SDS011;8249;48.708;9.030;2023-06-14T06:06:25;78.07;;;74.67;;
16282;SDS011;8249;48.708;9.030;2023-06-14T06:08:52;77.13;;;73.87;;
16282;SDS011;8249;48.708;9.030;2023-06-14T06:11:19;59.80;;;57.13;;
16282;SDS011;8249;48.708;9.030;2023-06-14T06:13:46;69.20;;;66.10;;
16282;SDS011;8249;48.708;9.030;2023-06-14T06:16:14;47.73;;;45.73;;
16282;SDS011;8249;48.708;9.030;2023-06-14T06:18:41;47.63;;;45.50;;
16282;SDS011;8249;48.708;9.030;2023-06-14T06:21:08;48.53;;;46.47;;
16282;SDS011;8249;48.708;9.030;2023-06-14T06:23:35;132.90;;;127.17;;
16282;SDS011;8249;48.708;9.030;2023-06-14T06:26:02;177.43;;;169.73;;
16282;SDS011;8249;48.708;9.030;2023-06-14T06:28:29;81.70;;;78.17;;
16282;SDS011;8249;48.708;9.030;2023-06-14T06:30:56;199.17;;;190.67;;
16282;SDS011;8249;48.708;9.030;2023-06-14T06:33:24;141.10;;;134.70;;
16282;SDS011;8249;48.708;9.030;2023-06-14T06:35:51;223.93;;;214.10;;
16282;SDS011;8249;48.708;9.030;2023-06-14T06:38:18;141.67;;;135.70;;
16282;SDS011;8249;48.708;9.030;2023-06-14T06:40:45;238.13;;;227.93;;
16282;SDS011;8249;48.708;9.030;2023-06-14T06:43:12;251.47;;;240.37;;
16282;SDS011;8249;48.708;9.030;2023-06-14T06:45:45;237.30;;;227.03;;
16282;SDS011;8249;48.708;9.030;2023-06-14T06:48:12;220.00;;;209.93;;
16282;SDS011;8249;48.708;9.030;2023-06-14T06:50:40;271.17;;;259.10;;
16282;SDS011;8249;48.708;9.030;2023-06-14T06:53:07;288.47;;;275.70;;
16282;SDS011;8249;48.708;9.030;2023-06-14T06:55:34;261.80;;;250.20;;
16282;SDS011;8249;48.708;9.030;2023-06-14T06:58:01;278.37;;;265.87;;
16282;SDS011;8249;48.708;9.030;2023-06-14T07:00:29;263.27;;;251.27;;
16282;SDS011;8249;48.708;9.030;2023-06-14T07:02:56;276.43;;;263.93;;
16282;SDS011;8249;48.708;9.030;2023-06-14T07:05:24;213.17;;;203.87;;
16282;SDS011;8249;48.708;9.030;2023-06-14T07:07:52;291.27;;;278.13;;
16282;SDS011;8249;48.708;9.030;2023-06-14T07:10:19;282.43;;;269.90;;
16282;SDS011;8249;48.708;9.030;2023-06-14T07:12:46;289.57;;;276.33;;
16282;SDS011;8249;48.708;9.030;2023-06-14T07:15:13;306.37;;;292.63;;
16282;SDS011;8249;48.708;9.030;2023-06-14T07:17:40;298.27;;;284.93;;
16282;SDS011;8249;48.708;9.030;2023-06-14T07:20:08;307.33;;;293.50;;
16282;SDS011;8249;48.708;9.030;2023-06-14T07:22:37;129.60;;;123.73;;
16282;SDS011;8249;48.708;9.030;2023-06-14T07:25:07;210.83;;;201.53;;
16282;SDS011;8249;48.708;9.030;2023-06-14T07:27:35;193.50;;;184.93;;
16282;SDS011;8249;48.708;9.030;2023-06-14T07:30:01;265.27;;;253.63;;
16282;SDS011;8249;48.708;9.030;2023-06-14T07:32:29;263.90;;;252.23;;
16282;SDS011;8249;48.708;9.030;2023-06-14T07:34:56;278.87;;;266.73;;
16282;SDS011;8249;48.708;9.030;2023-06-14T07:37:23;260.97;;;249.60;;
16282;SDS011;8249;48.708;9.030;2023-06-14T07:39:50;233.33;;;223.00;;
16282;SDS011;8249;48.708;9.030;2023-06-14T07:42:18;159.47;;;152.53;;
16282;SDS011;8249;48.708;9.030;2023-06-14T07:44:45;128.13;;;122.43;;
16282;SDS011;8249;48.708;9.030;2023-06-14T07:47:12;203.17;;;194.13;;
16282;SDS011;8249;48.708;9.030;2023-06-14T07:49:39;236.90;;;226.70;;
16282;SDS011;8249;48.708;9.030;2023-06-14T07:52:06;240.53;;;230.13;;
16282;SDS011;8249;48.708;9.030;2023-06-14T07:54:33;195.90;;;187.35;;
16282;SDS011;8249;48.708;9.030;2023-06-14T07:57:01;193.95;;;185.43;;
16282;SDS011;8249;48.708;9.030;2023-06-14T07:59:29;238.65;;;228.35;;
16282;SDS011;8249;48.708;9.030;2023-06-14T08:01:56;222.18;;;212.77;;
16282;SDS011;8249;48.708;9.030;2023-06-14T08:04:23;160.48;;;153.52;;
16282;SDS011;8249;48.708;9.030;2023-06-14T08:06:50;217.82;;;208.50;;
16282;SDS011;8249;48.708;9.030;2023-06-14T08:09:17;200.68;;;192.18;;
16282;SDS011;8249;48.708;9.030;2023-06-14T08:11:44;203.38;;;194.70;;
16282;SDS011;8249;48.708;9.030;2023-06-14T08:14:11;210.48;;;201.23;;
16282;SDS011;8249;48.708;9.030;2023-06-14T08:16:39;168.85;;;161.38;;
16282;SDS011;8249;48.708;9.030;2023-06-14T08:19:06;112.95;;;108.13;;
16282;SDS011;8249;48.708;9.030;2023-06-14T08:21:33;169.57;;;162.32;;
16282;SDS011;8249;48.708;9.030;2023-06-14T08:24:01;168.60;;;161.07;;
16282;SDS011;8249;48.708;9.030;2023-06-14T08:26:29;154.13;;;147.55;;
16282;SDS011;8249;48.708;9.030;2023-06-14T08:28:57;155.40;;;148.60;;
16282;SDS011;8249;48.708;9.030;2023-06-14T08:31:24;114.07;;;108.85;;
16282;SDS011;8249;48.708;9.030;2023-06-14T08:33:54;83.57;;;80.00;;
16282;SDS011;8249;48.708;9.030;2023-06-14T08:36:21;80.63;;;77.10;;
16282;SDS011;8249;48.708;9.030;2023-06-14T08:38:48;71.55;;;68.47;;
16282;SDS011;8249;48.708;9.030;2023-06-14T08:41:17;64.82;;;62.05;;
16282;SDS011;8249;48.708;9.030;2023-06-14T08:43:47;63.45;;;60.65;;
16282;SDS011;8249;48.708;9.030;2023-06-14T08:46:14;73.55;;;70.45;;
16282;SDS011;8249;48.708;9.030;2023-06-14T08:48:45;72.50;;;69.40;;
16282;SDS011;8249;48.708;9.030;2023-06-14T08:51:14;69.35;;;66.40;;
16282;SDS011;8249;48.708;9.030;2023-06-14T08:53:45;71.13;;;68.05;;
16282;SDS011;8249;48.708;9.030;2023-06-14T08:56:16;73.53;;;70.32;;
16282;SDS011;8249;48.708;9.030;2023-06-14T08:58:43;64.30;;;61.55;;
16282;SDS011;8249;48.708;9.030;2023-06-14T09:01:11;64.13;;;61.35;;
16282;SDS011;8249;48.708;9.030;2023-06-14T09:03:39;69.25;;;66.35;;
16282;SDS011;8249;48.708;9.030;2023-06-14T09:06:07;62.58;;;59.28;;
16282;SDS011;8249;48.708;9.030;2023-06-14T09:08:40;64.72;;;61.88;;
16282;SDS011;8249;48.708;9.030;2023-06-14T09:11:10;55.42;;;53.03;;
16282;SDS011;8249;48.708;9.030;2023-06-14T09:13:38;55.03;;;52.63;;
16282;SDS011;8249;48.708;9.030;2023-06-14T09:16:05;54.78;;;52.40;;
16282;SDS011;8249;48.708;9.030;2023-06-14T09:18:36;52.58;;;50.22;;
16282;SDS011;8249;48.708;9.030;2023-06-14T09:21:05;51.90;;;49.70;;
16282;SDS011;8249;48.708;9.030;2023-06-14T09:23:33;44.30;;;42.22;;
16282;SDS011;8249;48.708;9.030;2023-06-14T09:26:07;46.50;;;44.35;;
16282;SDS011;8249;48.708;9.030;2023-06-14T09:28:35;48.28;;;46.17;;
16282;SDS011;8249;48.708;9.030;2023-06-14T09:31:02;42.40;;;40.58;;
16282;SDS011;8249;48.708;9.030;2023-06-14T09:33:30;38.60;;;36.70;;
16282;SDS011;8249;48.708;9.030;2023-06-14T09:35:57;45.33;;;43.22;;
16282;SDS011;8249;48.708;9.030;2023-06-14T09:38:25;32.17;;;30.80;;
16282;SDS011;8249;48.708;9.030;2023-06-14T09:40:52;39.42;;;37.58;;
16282;SDS011;8249;48.708;9.030;2023-06-14T09:43:23;29.85;;;28.65;;
16282;SDS011;8249;48.708;9.030;2023-06-14T09:45:52;27.50;;;26.40;;
16282;SDS011;8249;48.708;9.030;2023-06-14T09:48:20;25.58;;;24.48;;
16282;SDS011;8249;48.708;9.030;2023-06-14T09:50:47;31.25;;;29.92;;
16282;SDS011;8249;48.708;9.030;2023-06-14T09:53:17;30.13;;;28.83;;
16282;SDS011;8249;48.708;9.030;2023-06-14T09:55:48;28.00;;;26.80;;
16282;SDS011;8249;48.708;9.030;2023-06-14T09:58:16;27.42;;;26.23;;
16282;SDS011;8249;48.708;9.030;2023-06-14T10:00:50;26.23;;;25.13;;
16282;SDS011;8249;48.708;9.030;2023-06-14T10:03:21;34.95;;;33.42;;
16282;SDS011;8249;48.708;9.030;2023-06-14T10:05:51;30.77;;;29.15;;
16282;SDS011;8249;48.708;9.030;2023-06-14T10:08:22;28.08;;;26.98;;
16282;SDS011;8249;48.708;9.030;2023-06-14T10:10:52;30.83;;;29.42;;
16282;SDS011;8249;48.708;9.030;2023-06-14T10:13:21;25.25;;;24.25;;
16282;SDS011;8249;48.708;9.030;2023-06-14T10:15:52;36.55;;;34.95;;
16282;SDS011;8249;48.708;9.030;2023-06-14T10:18:29;31.50;;;30.05;;
16282;SDS011;8249;48.708;9.030;2023-06-14T10:21:05;39.72;;;38.03;;
16282;SDS011;8249;48.708;9.030;2023-06-14T10:23:40;45.70;;;43.72;;
16282;SDS011;8249;48.708;9.030;2023-06-14T10:26:09;41.97;;;40.17;;
16282;SDS011;8249;48.708;9.030;2023-06-14T10:28:54;54.75;;;52.35;;
16282;SDS011;8249;48.708;9.030;2023-06-14T10:31:24;73.13;;;69.93;;
16282;SDS011;8249;48.708;9.030;2023-06-14T10:34:07;69.07;;;66.07;;
16282;SDS011;8249;48.708;9.030;2023-06-14T10:36:34;115.07;;;110.20;;
16282;SDS011;8249;48.708;9.030;2023-06-14T10:39:05;123.30;;;118.03;;
16282;SDS011;8249;48.708;9.030;2023-06-14T10:41:34;108.53;;;103.85;;
16282;SDS011;8249;48.708;9.030;2023-06-14T10:47:00;77.95;;;74.55;;
16282;SDS011;8249;48.708;9.030;2023-06-14T10:49:36;65.70;;;62.75;;
16282;SDS011;8249;48.708;9.030;2023-06-14T10:52:07;92.63;;;88.60;;
16282;SDS011;8249;48.708;9.030;2023-06-14T10:54:37;84.25;;;80.55;;
16282;SDS011;8249;48.708;9.030;2023-06-14T10:57:06;177.32;;;169.70;;
16282;SDS011;8249;48.708;9.030;2023-06-14T10:59:33;145.00;;;138.82;;
16282;SDS011;8249;48.708;9.030;2023-06-14T11:02:12;128.38;;;122.88;;
16282;SDS011;8249;48.708;9.030;2023-06-14T11:05:02;170.38;;;163.18;;
16282;SDS011;8249;48.708;9.030;2023-06-14T11:07:35;167.30;;;160.18;;
16282;SDS011;8249;48.708;9.030;2023-06-14T11:10:16;200.43;;;191.60;;
16282;SDS011;8249;48.708;9.030;2023-06-14T11:12:53;181.30;;;173.43;;
16282;SDS011;8249;48.708;9.030;2023-06-14T11:15:27;182.90;;;174.85;;
16282;SDS011;8249;48.708;9.030;2023-06-14T11:17:56;187.38;;;179.35;;
16282;SDS011;8249;48.708;9.030;2023-06-14T11:20:24;180.18;;;172.48;;
16282;SDS011;8249;48.708;9.030;2023-06-14T11:22:52;166.77;;;159.70;;
16282;SDS011;8249;48.708;9.030;2023-06-14T11:25:20;154.73;;;148.10;;
16282;SDS011;8249;48.708;9.030;2023-06-14T11:27:48;122.80;;;117.50;;
16282;SDS011;8249;48.708;9.030;2023-06-14T11:30:16;87.68;;;83.82;;
16282;SDS011;8249;48.708;9.030;2023-06-14T11:32:45;70.00;;;66.90;;
16282;SDS011;8249;48.708;9.030;2023-06-14T11:35:14;63.63;;;60.80;;
16282;SDS011;8249;48.708;9.030;2023-06-14T11:37:42;46.75;;;44.70;;
16282;SDS011;8249;48.708;9.030;2023-06-14T11:40:10;46.90;;;44.75;;
16282;SDS011;8249;48.708;9.030;2023-06-14T11:42:40;46.88;;;44.88;;
16282;SDS011;8249;48.708;9.030;2023-06-14T11:45:08;58.80;;;56.25;;
16282;SDS011;8249;48.708;9.030;2023-06-14T11:47:36;67.55;;;64.60;;
16282;SDS011;8249;48.708;9.030;2023-06-14T11:50:04;47.70;;;45.65;;
16282;SDS011;8249;48.708;9.030;2023-06-14T11:52:35;82.65;;;79.05;;
16282;SDS011;8249;48.708;9.030;2023-06-14T11:55:03;63.78;;;61.00;;
16282;SDS011;8249;48.708;9.030;2023-06-14T11:57:33;63.00;;;60.25;;
16282;SDS011;8249;48.708;9.030;2023-06-14T12:00:02;70.85;;;67.72;;
16282;SDS011;8249;48.708;9.030;2023-06-14T12:02:36;85.53;;;81.72;;
16282;SDS011;8249;48.708;9.030;2023-06-14T12:05:06;143.82;;;137.65;;
16282;SDS011;8249;48.708;9.030;2023-06-14T12:07:36;155.57;;;148.88;;
16282;SDS011;8249;48.708;9.030;2023-06-14T12:10:06;107.32;;;102.68;;
16282;SDS011;8249;48.708;9.030;2023-06-14T12:12:35;204.75;;;195.95;;
16282;SDS011;8249;48.708;9.030;2023-06-14T12:15:03;167.65;;;160.32;;
16282;SDS011;8249;48.708;9.030;2023-06-14T12:17:31;185.50;;;177.55;;
16282;SDS011;8249;48.708;9.030;2023-06-14T12:20:04;165.05;;;157.93;;
16282;SDS011;8249;48.708;9.030;2023-06-14T12:22:37;176.82;;;169.13;;
16282;SDS011;8249;48.708;9.030;2023-06-14T12:25:04;180.30;;;172.57;;
16282;SDS011;8249;48.708;9.030;2023-06-14T12:27:34;169.48;;;162.13;;
16282;SDS011;8249;48.708;9.030;2023-06-14T12:30:02;183.40;;;175.43;;
16282;SDS011;8249;48.708;9.030;2023-06-14T12:32:30;178.75;;;171.00;;
16282;SDS011;8249;48.708;9.030;2023-06-14T12:34:57;179.40;;;171.65;;
16282;SDS011;8249;48.708;9.030;2023-06-14T12:37:24;155.40;;;148.65;;
16282;SDS011;8249;48.708;9.030;2023-06-14T12:39:52;155.50;;;148.57;;
16282;SDS011;8249;48.708;9.030;2023-06-14T12:42:19;178.00;;;170.30;;
16282;SDS011;8249;48.708;9.030;2023-06-14T12:44:46;177.95;;;170.18;;
16282;SDS011;8249;48.708;9.030;2023-06-14T12:47:13;176.68;;;168.88;;
16282;SDS011;8249;48.708;9.030;2023-06-14T12:49:40;171.73;;;164.30;;
16282;SDS011;8249;48.708;9.030;2023-06-14T12:52:07;170.93;;;163.60;;
16282;SDS011;8249;48.708;9.030;2023-06-14T12:54:35;180.45;;;172.27;;
16282;SDS011;8249;48.708;9.030;2023-06-14T12:57:03;174.48;;;166.50;;
16282;SDS011;8249;48.708;9.030;2023-06-14T12:59:30;184.00;;;175.85;;
16282;SDS011;8249;48.708;9.030;2023-06-14T13:01:59;158.40;;;151.50;;
16282;SDS011;8249;48.708;9.030;2023-06-14T13:04:37;153.18;;;146.35;;
16282;SDS011;8249;48.708;9.030;2023-06-14T13:07:04;112.85;;;107.97;;
16282;SDS011;8249;48.708;9.030;2023-06-14T13:09:32;126.60;;;121.10;;
16282;SDS011;8249;48.708;9.030;2023-06-14T13:12:00;167.50;;;160.25;;
16282;SDS011;8249;48.708;9.030;2023-06-14T13:14:28;134.07;;;128.23;;
16282;SDS011;8249;48.708;9.030;2023-06-14T13:16:55;163.10;;;156.10;;
16282;SDS011;8249;48.708;9.030;2023-06-14T13:19:22;163.52;;;156.27;;
16282;SDS011;8249;48.708;9.030;2023-06-14T13:21:49;152.95;;;146.23;;
16282;SDS011;8249;48.708;9.030;2023-06-14T13:24:16;151.02;;;144.50;;
16282;SDS011;8249;48.708;9.030;2023-06-14T13:26:43;171.10;;;163.68;;
16282;SDS011;8249;48.708;9.030;2023-06-14T13:29:10;163.55;;;156.50;;
16282;SDS011;8249;48.708;9.030;2023-06-14T13:31:39;161.13;;;154.10;;
16282;SDS011;8249;48.708;9.030;2023-06-14T13:34:05;152.02;;;145.32;;
16282;SDS011;8249;48.708;9.030;2023-06-14T13:36:32;160.45;;;153.48;;
16282;SDS011;8249;48.708;9.030;2023-06-14T13:38:59;130.00;;;124.38;;
16282;SDS011;8249;48.708;9.030;2023-06-14T13:41:27;165.85;;;158.68;;
16282;SDS011;8249;48.708;9.030;2023-06-14T13:43:57;173.45;;;165.98;;
16282;SDS011;8249;48.708;9.030;2023-06-14T13:46:24;166.95;;;159.65;;
16282;SDS011;8249;48.708;9.030;2023-06-14T13:48:53;150.60;;;144.05;;
16282;SDS011;8249;48.708;9.030;2023-06-14T13:51:20;159.90;;;152.93;;
16282;SDS011;8249;48.708;9.030;2023-06-14T13:53:47;174.82;;;167.15;;
16282;SDS011;8249;48.708;9.030;2023-06-14T13:56:16;161.15;;;154.13;;
16282;SDS011;8249;48.708;9.030;2023-06-14T13:58:44;162.88;;;155.75;;
16282;SDS011;8249;48.708;9.030;2023-06-14T14:01:11;166.43;;;159.18;;
16282;SDS011;8249;48.708;9.030;2023-06-14T14:03:38;151.15;;;144.55;;
16282;SDS011;8249;48.708;9.030;2023-06-14T14:06:06;150.23;;;143.63;;
16282;SDS011;8249;48.708;9.030;2023-06-14T14:08:34;149.85;;;143.32;;
16282;SDS011;8249;48.708;9.030;2023-06-14T14:11:02;175.32;;;167.88;;
16282;SDS011;8249;48.708;9.030;2023-06-14T14:13:29;169.63;;;161.90;;
16282;SDS011;8249;48.708;9.030;2023-06-14T14:15:56;168.35;;;160.93;;
16282;SDS011;8249;48.708;9.030;2023-06-14T14:18:24;158.85;;;151.98;;
16282;SDS011;8249;48.708;9.030;2023-06-14T14:20:51;171.50;;;164.07;;
16282;SDS011;8249;48.708;9.030;2023-06-14T14:23:19;163.82;;;156.60;;
16282;SDS011;8249;48.708;9.030;2023-06-14T14:25:47;184.55;;;176.48;;
16282;SDS011;8249;48.708;9.030;2023-06-14T14:28:14;176.27;;;168.68;;